CheckWX is a tool to help pilots better visualize weather data.  It is not intended as a substitute for an official pre-flight weather briefing.

20:17:56 UTC

KGWW METAR
Wayne Executive Jetport Airport
Goldsboro, North Carolina, USA
Current

33 mins ago

KGWW 261945Z AUTO 00000KT 10SM CLR 31/17 A3009 RMK AO2 T03110167
Observed
Jun-26 @ 19:45 UTC
Visibility
10 SM
Flight Rules
VFR
Cloud Levels
  • Clear skies
Temperature
31°C / 88°F
Dewpoint
17°C / 63°F
Heat Index
32°C / 89°F
Humidity
43%
Altimeter
30.09" Hg
Pressure
1018.92 hPa
Previous

53 mins ago

KGWW 261925Z AUTO 35004KT 10SM CLR 31/17 A3009 RMK AO2 T03120174
Observed
Jun-26 @ 19:25 UTC
Wind
  • 350° at 4 KTS
Visibility
10 SM
Flight Rules
VFR
Cloud Levels
  • Clear skies
Temperature
31°C / 88°F
Dewpoint
17°C / 63°F
Heat Index
32°C / 89°F
Humidity
43%
Altimeter
30.09" Hg
Pressure
1018.92 hPa
Previous

1 hour ago

KGWW 261905Z AUTO 36005KT 10SM CLR 32/16 A3009 RMK AO2 T03160164
Observed
Jun-26 @ 19:05 UTC
Wind
  • 360° at 5 KTS
Visibility
10 SM
Flight Rules
VFR
Cloud Levels
  • Clear skies
Temperature
32°C / 90°F
Dewpoint
16°C / 61°F
Humidity
38%
Altimeter
30.09" Hg
Pressure
1018.92 hPa